createdAt,value
2018-03-31T00:01:27.786Z,33.70
2018-03-31T00:03:54.844Z,34.67
2018-03-31T00:06:21.911Z,35.30
2018-03-31T00:08:48.984Z,34.43
2018-03-31T00:11:16.130Z,34.00
2018-03-31T00:13:43.200Z,34.00
2018-03-31T00:16:11.097Z,33.97
2018-03-31T00:18:38.150Z,32.57
2018-03-31T00:21:05.481Z,31.73
2018-03-31T00:23:32.592Z,32.63
2018-03-31T00:25:59.669Z,29.90
2018-03-31T00:28:27.533Z,30.43
2018-03-31T00:30:55.367Z,30.50
2018-03-31T00:33:22.488Z,29.87
2018-03-31T00:35:49.571Z,29.87
2018-03-31T00:38:16.649Z,29.60
2018-03-31T00:40:43.774Z,30.37
2018-03-31T00:43:10.860Z,28.40
2018-03-31T00:45:37.940Z,29.20
2018-03-31T00:48:05.029Z,28.53
2018-03-31T00:50:32.092Z,29.00
2018-03-31T00:52:59.182Z,30.70
2018-03-31T00:55:26.361Z,31.00
2018-03-31T00:57:53.473Z,28.50
2018-03-31T01:00:20.534Z,29.43
2018-03-31T01:02:47.595Z,27.47
2018-03-31T01:05:14.716Z,26.50
2018-03-31T01:07:41.788Z,26.97
2018-03-31T01:10:08.861Z,26.27
2018-03-31T01:12:35.959Z,25.90
2018-03-31T01:15:03.077Z,24.77
2018-03-31T01:17:30.158Z,25.83
2018-03-31T01:19:57.235Z,26.90
2018-03-31T01:22:24.348Z,24.90
2018-03-31T01:24:51.445Z,25.37
2018-03-31T01:27:18.530Z,25.80
2018-03-31T01:29:46.405Z,25.40
2018-03-31T01:32:14.252Z,25.03
2018-03-31T01:34:41.409Z,24.80
2018-03-31T01:37:08.488Z,24.33
2018-03-31T01:39:35.595Z,25.43
2018-03-31T01:42:02.663Z,23.33
2018-03-31T01:44:30.533Z,23.30
2018-03-31T01:46:57.639Z,22.77
2018-03-31T01:49:24.745Z,22.17
2018-03-31T01:51:51.855Z,23.47
2018-03-31T01:54:19.685Z,22.43
2018-03-31T01:56:46.748Z,21.87
2018-03-31T01:59:13.885Z,22.33
2018-03-31T02:01:40.964Z,22.97
2018-03-31T02:04:08.048Z,23.77
2018-03-31T02:06:35.151Z,23.87
2018-03-31T02:09:02.243Z,21.90
2018-03-31T02:11:30.077Z,24.27
2018-03-31T02:13:57.191Z,22.23
2018-03-31T02:16:24.324Z,22.83
2018-03-31T02:18:51.380Z,24.23
2018-03-31T02:21:18.454Z,23.57
2018-03-31T02:23:45.552Z,22.87
2018-03-31T02:26:12.628Z,22.30
2018-03-31T02:28:39.721Z,23.07
2018-03-31T02:31:06.815Z,23.73
2018-03-31T02:33:33.887Z,23.27
2018-03-31T02:36:01.080Z,24.17
2018-03-31T02:38:28.102Z,24.07
2018-03-31T02:40:55.189Z,23.43
2018-03-31T02:43:23.065Z,23.67
2018-03-31T02:45:50.136Z,23.73
2018-03-31T02:48:17.364Z,23.70
2018-03-31T02:50:45.220Z,23.30
2018-03-31T02:53:13.067Z,25.33
2018-03-31T02:55:40.173Z,25.20
2018-03-31T02:58:07.257Z,24.33
2018-03-31T03:00:34.402Z,24.00
2018-03-31T03:03:01.536Z,24.10
2018-03-31T03:05:28.607Z,24.33
2018-03-31T03:07:55.730Z,24.73
2018-03-31T03:10:22.860Z,24.57
2018-03-31T03:12:49.944Z,25.17
2018-03-31T03:15:16.995Z,25.33
2018-03-31T03:17:44.102Z,24.80
2018-03-31T03:20:11.164Z,23.27
2018-03-31T03:22:38.276Z,25.90
2018-03-31T03:25:05.340Z,25.43
2018-03-31T03:27:32.423Z,23.80
2018-03-31T03:29:59.619Z,23.90
2018-03-31T03:32:28.195Z,24.17
2018-03-31T03:34:55.298Z,24.30
2018-03-31T03:37:22.379Z,24.33
2018-03-31T03:39:49.448Z,24.93
2018-03-31T03:42:16.863Z,24.00
2018-03-31T03:44:43.911Z,24.43
2018-03-31T03:47:11.011Z,23.93
2018-03-31T03:49:38.849Z,24.93
2018-03-31T03:52:05.977Z,24.53
2018-03-31T03:54:33.025Z,24.87
2018-03-31T03:57:00.095Z,24.10
2018-03-31T03:59:27.270Z,24.93
2018-03-31T04:01:54.336Z,24.60
2018-03-31T04:04:22.155Z,24.83
2018-03-31T04:06:49.261Z,24.60
2018-03-31T04:09:16.334Z,24.87
2018-03-31T04:11:43.426Z,23.53
2018-03-31T04:14:10.493Z,25.40
2018-03-31T04:16:37.595Z,25.83
2018-03-31T04:19:04.679Z,25.50
2018-03-31T04:21:32.507Z,26.93
2018-03-31T04:23:59.587Z,25.03
2018-03-31T04:26:26.653Z,24.93
2018-03-31T04:28:54.512Z,25.70
2018-03-31T04:31:22.375Z,25.20
2018-03-31T04:33:49.449Z,25.77
2018-03-31T04:36:16.524Z,25.20
2018-03-31T04:38:43.622Z,25.47
2018-03-31T04:41:11.493Z,25.00
2018-03-31T04:43:38.590Z,25.07
2018-03-31T04:46:05.657Z,23.93
2018-03-31T04:48:32.789Z,26.13
2018-03-31T04:50:59.860Z,24.83
2018-03-31T04:53:26.943Z,26.13
2018-03-31T04:55:54.812Z,25.00
2018-03-31T04:58:21.906Z,25.10
2018-03-31T05:00:49.002Z,25.03
2018-03-31T05:03:16.150Z,25.33
2018-03-31T05:05:43.228Z,26.57
2018-03-31T05:08:10.317Z,27.67
2018-03-31T05:10:37.386Z,26.03
2018-03-31T05:13:04.481Z,28.10
2018-03-31T05:15:31.552Z,25.50
2018-03-31T05:17:58.646Z,25.70
2018-03-31T05:20:26.478Z,26.20
2018-03-31T05:22:53.556Z,26.67
2018-03-31T05:25:20.658Z,26.40
2018-03-31T05:27:47.956Z,25.57
2018-03-31T05:30:15.828Z,26.40
2018-03-31T05:32:42.903Z,27.30
2018-03-31T05:35:09.969Z,28.27
2018-03-31T05:37:37.073Z,28.50
2018-03-31T05:40:04.907Z,27.20
2018-03-31T05:42:31.986Z,28.10
2018-03-31T05:44:59.099Z,27.13
2018-03-31T05:47:26.180Z,28.50
2018-03-31T05:49:53.280Z,28.27
2018-03-31T05:52:20.344Z,29.27
2018-03-31T05:54:47.446Z,29.67
2018-03-31T05:57:14.585Z,31.57
2018-03-31T05:59:41.676Z,29.30
2018-03-31T06:02:08.733Z,29.00
2018-03-31T06:04:35.828Z,30.73
2018-03-31T06:07:02.912Z,30.23
2018-03-31T06:09:30.011Z,28.83
2018-03-31T06:11:57.075Z,28.03
2018-03-31T06:14:24.906Z,29.20
2018-03-31T06:16:52.767Z,29.70
2018-03-31T06:19:20.591Z,29.93
2018-03-31T06:21:47.655Z,30.30
2018-03-31T06:24:14.740Z,30.17
2018-03-31T06:26:41.815Z,29.93
2018-03-31T06:29:08.920Z,28.47
2018-03-31T06:31:35.984Z,28.40
2018-03-31T06:34:03.120Z,29.67
2018-03-31T06:36:30.189Z,29.63
2018-03-31T06:38:57.265Z,29.57
2018-03-31T06:41:25.158Z,28.60
2018-03-31T06:43:52.229Z,27.90
2018-03-31T06:46:19.342Z,35.70
2018-03-31T06:48:46.417Z,38.47
2018-03-31T06:51:13.489Z,31.47
2018-03-31T06:53:40.575Z,29.63
2018-03-31T06:56:07.653Z,29.63
2018-03-31T06:58:34.757Z,31.47
2018-03-31T07:01:01.821Z,34.33
2018-03-31T07:03:28.880Z,32.13
2018-03-31T07:05:56.011Z,30.27
2018-03-31T07:08:23.093Z,31.60
2018-03-31T07:10:50.145Z,32.93
2018-03-31T07:13:17.262Z,31.07
2018-03-31T07:15:44.339Z,31.03
2018-03-31T07:18:11.427Z,32.30
2018-03-31T07:20:39.287Z,31.70
2018-03-31T07:23:06.335Z,33.43
2018-03-31T07:25:33.393Z,34.67
2018-03-31T07:28:00.484Z,37.37
2018-03-31T07:30:27.576Z,40.10
2018-03-31T07:32:54.675Z,42.00
2018-03-31T07:35:22.644Z,34.70
2018-03-31T07:37:50.476Z,35.73
2018-03-31T07:40:17.570Z,35.07
2018-03-31T07:42:45.391Z,40.20
2018-03-31T07:45:12.502Z,35.90
2018-03-31T07:47:39.607Z,38.50
2018-03-31T07:50:06.683Z,38.27
2018-03-31T07:52:34.528Z,41.10
2018-03-31T07:55:01.594Z,40.63
2018-03-31T07:57:29.444Z,37.00
2018-03-31T07:59:56.539Z,38.73
2018-03-31T08:02:23.643Z,39.77
2018-03-31T08:04:50.701Z,39.50
2018-03-31T08:07:18.526Z,39.33
2018-03-31T08:09:45.620Z,41.30
2018-03-31T08:12:13.439Z,43.10
2018-03-31T08:14:40.488Z,43.83
2018-03-31T08:17:07.616Z,41.37
2018-03-31T08:19:34.690Z,41.77
2018-03-31T08:22:01.771Z,39.93
2018-03-31T08:24:28.848Z,42.20
2018-03-31T08:26:55.903Z,40.87
2018-03-31T08:29:23.004Z,41.47
2018-03-31T08:31:50.106Z,44.33
2018-03-31T08:34:17.173Z,44.37
2018-03-31T08:36:44.227Z,44.90
2018-03-31T08:39:11.284Z,42.47
2018-03-31T08:41:38.392Z,39.97
2018-03-31T08:44:05.570Z,43.07
2018-03-31T08:46:32.621Z,40.73
2018-03-31T08:48:59.680Z,40.50
2018-03-31T08:51:26.784Z,42.73
2018-03-31T08:53:53.831Z,39.73
2018-03-31T08:56:21.665Z,39.50
2018-03-31T08:58:48.756Z,34.83
2018-03-31T09:01:15.835Z,35.70
2018-03-31T09:03:42.939Z,34.10
2018-03-31T09:06:10.795Z,33.33
2018-03-31T09:08:38.661Z,33.53
2018-03-31T09:11:05.773Z,34.30
2018-03-31T09:13:32.839Z,34.50
2018-03-31T09:15:59.951Z,34.60
2018-03-31T09:18:27.012Z,33.67
2018-03-31T09:20:54.076Z,33.40
2018-03-31T09:23:21.182Z,32.53
2018-03-31T09:25:48.242Z,32.27
2018-03-31T09:28:15.291Z,38.20
2018-03-31T09:30:42.384Z,39.43
2018-03-31T09:33:09.492Z,41.03
2018-03-31T09:35:36.606Z,38.90
2018-03-31T09:38:03.673Z,36.53
2018-03-31T09:40:30.761Z,36.70
2018-03-31T09:42:57.852Z,36.73
2018-03-31T09:45:24.912Z,41.40
2018-03-31T09:47:52.045Z,38.87
2018-03-31T09:50:19.134Z,35.90
2018-03-31T09:52:46.202Z,45.10
2018-03-31T09:55:13.298Z,43.30
2018-03-31T09:57:40.368Z,42.87
2018-03-31T10:00:07.468Z,37.30
2018-03-31T10:02:34.550Z,38.80
2018-03-31T10:05:02.862Z,43.10
2018-03-31T10:07:29.977Z,35.90
2018-03-31T10:09:57.042Z,34.70
2018-03-31T10:12:24.094Z,36.67
2018-03-31T10:14:51.191Z,38.83
2018-03-31T10:17:18.295Z,34.47
2018-03-31T10:19:45.387Z,35.20
2018-03-31T10:22:12.497Z,34.97
2018-03-31T10:24:39.575Z,36.40
2018-03-31T10:27:06.825Z,36.23
2018-03-31T10:29:33.892Z,36.13
2018-03-31T10:32:00.994Z,35.37
2018-03-31T10:34:28.096Z,35.20
2018-03-31T10:36:55.985Z,34.57
2018-03-31T10:39:23.077Z,38.40
2018-03-31T10:41:50.196Z,35.63
2018-03-31T10:44:17.278Z,32.93
2018-03-31T10:46:44.371Z,32.97
2018-03-31T10:49:12.201Z,32.53
2018-03-31T10:51:40.079Z,32.50
2018-03-31T10:54:07.148Z,30.80
2018-03-31T10:56:35.014Z,30.53
2018-03-31T10:59:02.854Z,28.37
2018-03-31T11:01:30.039Z,28.70
2018-03-31T11:03:57.125Z,30.30
2018-03-31T11:06:24.211Z,29.90
2018-03-31T11:08:51.299Z,32.50
2018-03-31T11:11:19.147Z,29.47
2018-03-31T11:13:46.707Z,29.17
2018-03-31T11:16:13.799Z,27.50
2018-03-31T11:18:40.883Z,29.67
2018-03-31T11:21:07.957Z,29.23
2018-03-31T11:23:35.827Z,29.43
2018-03-31T11:26:02.927Z,24.80
2018-03-31T11:28:29.992Z,22.50
2018-03-31T11:30:57.074Z,26.90
2018-03-31T11:33:24.182Z,23.87
2018-03-31T11:35:51.270Z,27.53
2018-03-31T11:38:19.093Z,28.60
2018-03-31T11:40:46.182Z,27.07
2018-03-31T11:43:14.047Z,25.17
2018-03-31T11:45:41.124Z,22.23
2018-03-31T11:48:08.196Z,25.13
2018-03-31T11:50:35.300Z,25.27
2018-03-31T11:53:03.152Z,24.60
2018-03-31T11:55:30.279Z,22.03
2018-03-31T11:57:57.353Z,23.47
2018-03-31T12:00:25.190Z,21.97
2018-03-31T12:02:52.288Z,24.27
2018-03-31T12:05:20.159Z,24.40
2018-03-31T12:07:47.221Z,13.30
2018-03-31T12:10:14.365Z,13.60
2018-03-31T12:12:41.454Z,14.70
2018-03-31T12:15:08.528Z,15.23
2018-03-31T12:17:35.640Z,15.70
2018-03-31T12:20:02.771Z,16.23
2018-03-31T12:22:29.829Z,15.40
2018-03-31T12:24:56.883Z,16.23
2018-03-31T12:27:24.042Z,16.97
2018-03-31T12:29:51.098Z,15.60
2018-03-31T12:32:18.155Z,14.33
2018-03-31T12:34:45.241Z,14.57
2018-03-31T12:37:12.299Z,12.63
2018-03-31T12:39:39.363Z,8.97
2018-03-31T12:42:06.461Z,9.23
2018-03-31T12:44:33.532Z,15.60
2018-03-31T12:47:01.395Z,15.67
2018-03-31T12:49:28.461Z,14.93
2018-03-31T12:51:55.507Z,15.20
2018-03-31T12:54:22.612Z,16.70
2018-03-31T12:56:49.672Z,11.77
2018-03-31T12:59:16.753Z,13.20
2018-03-31T13:01:43.844Z,14.83
2018-03-31T13:04:11.092Z,13.30
2018-03-31T13:06:38.453Z,12.97
2018-03-31T13:09:05.537Z,12.30
2018-03-31T13:11:33.413Z,15.00
2018-03-31T13:14:01.252Z,14.13
2018-03-31T13:16:28.319Z,12.47
2018-03-31T13:18:56.190Z,13.57
2018-03-31T13:21:23.266Z,13.37
2018-03-31T13:23:50.394Z,12.97
2018-03-31T13:26:18.233Z,13.13
2018-03-31T13:28:45.308Z,12.73
2018-03-31T13:31:13.193Z,16.37
2018-03-31T13:33:40.267Z,19.37
2018-03-31T13:36:07.367Z,14.60
2018-03-31T13:38:35.215Z,12.77
2018-03-31T13:41:02.304Z,11.93
2018-03-31T13:43:29.422Z,12.17
2018-03-31T13:45:56.571Z,9.83
2018-03-31T13:48:23.682Z,2.33
2018-03-31T13:50:50.853Z,3.97
2018-03-31T13:53:17.933Z,5.90
2018-03-31T13:55:45.748Z,4.23
2018-03-31T13:58:12.838Z,2.90
2018-03-31T14:00:39.900Z,3.27
2018-03-31T14:03:07.719Z,2.77
2018-03-31T14:05:34.782Z,2.57
2018-03-31T14:08:01.867Z,2.80
2018-03-31T14:10:29.717Z,2.87
2018-03-31T14:12:57.539Z,2.63
2018-03-31T14:15:24.639Z,2.00
2018-03-31T14:17:52.459Z,13.47
2018-03-31T14:20:19.522Z,18.87
2018-03-31T14:22:46.684Z,20.47
2018-03-31T14:25:13.735Z,23.07
2018-03-31T14:27:40.838Z,21.73
2018-03-31T14:30:07.927Z,22.60
2018-03-31T14:32:35.006Z,21.40
2018-03-31T14:35:02.100Z,19.40
2018-03-31T14:37:29.177Z,18.80
2018-03-31T14:39:56.283Z,4.30
2018-03-31T14:42:23.372Z,4.83
2018-03-31T14:44:50.466Z,6.63
2018-03-31T14:47:17.531Z,5.30
2018-03-31T14:49:44.588Z,3.70
2018-03-31T14:52:11.677Z,4.67
2018-03-31T14:54:39.680Z,3.77
2018-03-31T14:57:06.787Z,5.00
2018-03-31T14:59:33.844Z,3.53
2018-03-31T15:02:00.939Z,3.27
2018-03-31T15:04:28.049Z,4.40
2018-03-31T15:06:55.115Z,3.70
2018-03-31T15:09:22.947Z,3.63
2018-03-31T15:11:50.030Z,2.73
2018-03-31T15:14:17.843Z,4.50
2018-03-31T15:16:44.942Z,7.90
2018-03-31T15:19:12.085Z,7.70
2018-03-31T15:21:39.184Z,8.77
2018-03-31T15:24:06.244Z,4.90
2018-03-31T15:26:33.341Z,4.33
2018-03-31T15:29:01.175Z,2.43
2018-03-31T15:31:28.472Z,6.07
2018-03-31T15:33:55.560Z,4.80
2018-03-31T15:36:22.616Z,2.83
2018-03-31T15:38:49.718Z,2.90
2018-03-31T15:41:16.764Z,4.30
2018-03-31T15:43:43.836Z,3.50
2018-03-31T15:46:10.927Z,4.17
2018-03-31T15:48:37.994Z,5.70
2018-03-31T15:51:05.283Z,3.97
2018-03-31T15:53:32.328Z,4.10
2018-03-31T15:55:59.427Z,4.53
2018-03-31T15:58:26.493Z,3.73
2018-03-31T16:00:53.557Z,3.30
2018-03-31T16:03:20.648Z,2.77
2018-03-31T16:05:47.733Z,3.30
2018-03-31T16:08:15.593Z,3.00
2018-03-31T16:10:42.648Z,3.80
2018-03-31T16:13:09.776Z,5.00
2018-03-31T16:15:36.823Z,7.20
2018-03-31T16:18:03.888Z,8.13
2018-03-31T16:20:31.754Z,9.07
2018-03-31T16:22:59.987Z,10.33
2018-03-31T16:25:27.089Z,11.37
2018-03-31T16:27:54.915Z,11.30
2018-03-31T16:30:22.021Z,9.80
2018-03-31T16:32:49.112Z,9.77
2018-03-31T16:35:16.175Z,11.57
2018-03-31T16:37:43.237Z,11.07
2018-03-31T16:40:10.447Z,11.40
2018-03-31T16:42:37.514Z,9.47
2018-03-31T16:45:04.597Z,6.10
2018-03-31T16:47:32.438Z,4.87
2018-03-31T16:49:59.551Z,3.87
2018-03-31T16:52:26.611Z,4.90
2018-03-31T16:54:53.697Z,4.50
2018-03-31T16:57:20.743Z,3.90
2018-03-31T16:59:47.815Z,4.23
2018-03-31T17:02:15.665Z,5.10
2018-03-31T17:04:42.724Z,4.73
2018-03-31T17:07:10.568Z,5.97
2018-03-31T17:09:37.684Z,5.20
2018-03-31T17:12:04.776Z,4.43
2018-03-31T17:14:31.884Z,5.70
2018-03-31T17:16:59.695Z,4.77
2018-03-31T17:19:26.772Z,4.43
2018-03-31T17:21:53.836Z,4.67
2018-03-31T17:24:20.931Z,6.93
2018-03-31T17:26:48.001Z,4.93
2018-03-31T17:29:15.839Z,5.40
2018-03-31T17:31:42.923Z,6.17
2018-03-31T17:34:09.972Z,6.43
2018-03-31T17:36:37.068Z,11.33
2018-03-31T17:39:04.132Z,16.63
2018-03-31T17:41:31.235Z,13.77
2018-03-31T17:43:58.336Z,11.80
2018-03-31T17:46:25.420Z,23.03
2018-03-31T17:48:52.522Z,16.83
2018-03-31T17:51:19.586Z,19.70
2018-03-31T17:53:46.687Z,12.20
2018-03-31T17:56:13.767Z,11.77
2018-03-31T17:58:40.840Z,11.77
2018-03-31T18:01:07.925Z,17.07
2018-03-31T18:03:34.980Z,17.50
2018-03-31T18:06:02.853Z,16.67
2018-03-31T18:08:29.958Z,17.90
2018-03-31T18:10:57.858Z,18.60
2018-03-31T18:13:24.917Z,25.90
2018-03-31T18:15:51.980Z,18.17
2018-03-31T18:18:19.072Z,19.00
2018-03-31T18:20:46.895Z,21.60
2018-03-31T18:23:14.021Z,19.67
2018-03-31T18:25:41.092Z,18.70
2018-03-31T18:28:08.155Z,19.23
2018-03-31T18:30:35.242Z,19.60
2018-03-31T18:33:03.059Z,23.67
2018-03-31T18:35:30.153Z,26.20
2018-03-31T18:37:58.042Z,29.70
2018-03-31T18:40:25.109Z,24.20
2018-03-31T18:42:52.222Z,21.17
2018-03-31T18:45:20.062Z,19.97
2018-03-31T18:47:47.153Z,22.17
2018-03-31T18:50:14.244Z,24.07
2018-03-31T18:52:41.370Z,28.43
2018-03-31T18:55:08.485Z,27.70
2018-03-31T18:57:35.548Z,30.10
2018-03-31T19:00:02.637Z,33.57
2018-03-31T19:02:29.816Z,32.57
2018-03-31T19:04:56.888Z,30.77
2018-03-31T19:07:24.712Z,30.47
2018-03-31T19:09:51.823Z,29.63
2018-03-31T19:12:18.880Z,25.07
2018-03-31T19:14:45.940Z,24.33
2018-03-31T19:17:15.406Z,23.20
2018-03-31T19:19:43.230Z,22.77
2018-03-31T19:22:10.380Z,22.70
2018-03-31T19:24:42.939Z,26.97
2018-03-31T19:27:10.076Z,24.40
2018-03-31T19:29:37.147Z,24.00
2018-03-31T19:32:04.212Z,26.03
2018-03-31T19:34:31.379Z,25.47
2018-03-31T19:36:58.438Z,27.73
2018-03-31T19:39:31.887Z,26.83
2018-03-31T19:41:58.999Z,27.23
2018-03-31T19:44:26.077Z,25.07
2018-03-31T19:46:53.136Z,23.13
2018-03-31T19:49:20.219Z,29.00
2018-03-31T19:51:47.276Z,30.73
2018-03-31T19:54:15.135Z,38.63
2018-03-31T19:56:42.981Z,37.10
2018-03-31T19:59:10.077Z,35.77
2018-03-31T20:01:37.186Z,36.00
2018-03-31T20:04:04.250Z,32.93
2018-03-31T20:06:31.332Z,29.03
2018-03-31T20:08:58.433Z,24.40
2018-03-31T20:11:25.501Z,25.77
2018-03-31T20:13:52.603Z,28.83
2018-03-31T20:16:19.668Z,27.37
2018-03-31T20:18:46.744Z,27.93
2018-03-31T20:21:14.628Z,29.87
2018-03-31T20:23:42.459Z,30.40
2018-03-31T20:26:09.659Z,33.60
2018-03-31T20:28:36.743Z,39.63
2018-03-31T20:31:03.838Z,44.30
2018-03-31T20:33:31.688Z,43.50
2018-03-31T20:35:58.785Z,37.63
2018-03-31T20:38:25.853Z,40.87
2018-03-31T20:40:52.946Z,46.63
2018-03-31T20:43:20.800Z,41.37
2018-03-31T20:45:47.867Z,36.53
2018-03-31T20:48:15.728Z,42.27
2018-03-31T20:50:43.547Z,38.07
2018-03-31T20:53:10.637Z,52.53
2018-03-31T20:55:38.481Z,97.10
2018-03-31T20:58:05.572Z,114.97
2018-03-31T21:00:33.389Z,56.93
2018-03-31T21:03:00.489Z,36.27
2018-03-31T21:05:27.548Z,26.43
2018-03-31T21:07:54.608Z,27.47
2018-03-31T21:10:21.700Z,28.20
2018-03-31T21:12:48.756Z,24.77
2018-03-31T21:15:15.855Z,33.77
2018-03-31T21:17:43.720Z,38.67
2018-03-31T21:20:10.820Z,34.00
2018-03-31T21:22:37.872Z,33.83
2018-03-31T21:25:05.699Z,33.73
2018-03-31T21:27:32.783Z,32.53
2018-03-31T21:29:59.900Z,33.63
2018-03-31T21:32:26.959Z,40.83
2018-03-31T21:34:54.107Z,33.40
2018-03-31T21:37:21.193Z,32.47
2018-03-31T21:39:48.252Z,33.63
2018-03-31T21:42:16.155Z,43.67
2018-03-31T21:44:43.224Z,46.53
2018-03-31T21:47:10.281Z,48.40
2018-03-31T21:49:37.500Z,53.17
2018-03-31T21:52:04.612Z,47.70
2018-03-31T21:54:32.433Z,48.83
2018-03-31T21:56:59.574Z,41.70
2018-03-31T21:59:26.623Z,37.53
2018-03-31T22:01:53.689Z,37.33
2018-03-31T22:04:20.781Z,37.50
2018-03-31T22:06:47.872Z,40.13
2018-03-31T22:09:14.948Z,32.23
2018-03-31T22:11:42.032Z,36.60
2018-03-31T22:14:14.700Z,37.27
2018-03-31T22:16:41.774Z,38.30
2018-03-31T22:19:08.872Z,42.30
2018-03-31T22:21:35.927Z,44.00
2018-03-31T22:24:03.028Z,44.67
2018-03-31T22:26:30.075Z,51.77
2018-03-31T22:28:57.170Z,47.30
2018-03-31T22:31:24.241Z,42.80
2018-03-31T22:33:52.064Z,44.60
2018-03-31T22:36:19.148Z,45.40
2018-03-31T22:38:47.009Z,42.27
2018-03-31T22:41:14.908Z,41.40
2018-03-31T22:43:41.991Z,40.77
2018-03-31T22:46:09.055Z,42.00
2018-03-31T22:48:36.116Z,44.10
2018-03-31T22:51:03.196Z,44.83
2018-03-31T22:53:30.416Z,45.40
2018-03-31T22:55:57.476Z,49.00
2018-03-31T22:58:25.305Z,47.57
2018-03-31T23:00:52.391Z,46.23
2018-03-31T23:03:19.455Z,47.90
2018-03-31T23:05:46.545Z,48.40
2018-03-31T23:08:13.627Z,47.73
2018-03-31T23:10:40.703Z,44.40
2018-03-31T23:13:07.764Z,44.57
2018-03-31T23:15:34.871Z,44.17
2018-03-31T23:18:01.936Z,42.33
2018-03-31T23:20:29.890Z,48.33
2018-03-31T23:22:57.761Z,52.07
2018-03-31T23:25:24.815Z,54.00
2018-03-31T23:27:51.916Z,54.93
2018-03-31T23:30:19.031Z,51.13
2018-03-31T23:32:46.865Z,52.57
2018-03-31T23:35:13.923Z,48.73
2018-03-31T23:37:41.009Z,50.30
2018-03-31T23:40:08.066Z,51.83
2018-03-31T23:42:35.165Z,50.37
2018-03-31T23:45:02.330Z,53.50
2018-03-31T23:47:29.351Z,51.77
2018-03-31T23:49:56.463Z,53.30
2018-03-31T23:52:23.517Z,52.50
2018-03-31T23:54:50.571Z,48.50
2018-03-31T23:57:17.688Z,44.57
2018-03-31T23:59:44.794Z,46.40
